sensor_id;sensor_type;location;lat;lon;timestamp;P1;durP1;ratioP1;P2;durP2;ratioP2
6642;SDS011;3357;48.050;7.800;2023-12-20T00:00:38;0.57;;;0.57;;
6642;SDS011;3357;48.050;7.800;2023-12-20T00:03:03;0.70;;;0.70;;
6642;SDS011;3357;48.050;7.800;2023-12-20T00:05:29;1.03;;;0.70;;
6642;SDS011;3357;48.050;7.800;2023-12-20T00:07:57;0.80;;;0.80;;
6642;SDS011;3357;48.050;7.800;2023-12-20T00:10:22;1.07;;;0.80;;
6642;SDS011;3357;48.050;7.800;2023-12-20T00:12:47;0.63;;;0.63;;
6642;SDS011;3357;48.050;7.800;2023-12-20T00:15:12;1.80;;;0.80;;
6642;SDS011;3357;48.050;7.800;2023-12-20T00:17:38;0.70;;;0.70;;
6642;SDS011;3357;48.050;7.800;2023-12-20T00:20:03;0.50;;;0.50;;
6642;SDS011;3357;48.050;7.800;2023-12-20T00:22:29;0.70;;;0.70;;
6642;SDS011;3357;48.050;7.800;2023-12-20T00:28:16;0.70;;;0.70;;
6642;SDS011;3357;48.050;7.800;2023-12-20T00:30:41;1.33;;;0.60;;
6642;SDS011;3357;48.050;7.800;2023-12-20T00:33:06;0.77;;;0.77;;
6642;SDS011;3357;48.050;7.800;2023-12-20T00:35:31;0.70;;;0.70;;
6642;SDS011;3357;48.050;7.800;2023-12-20T00:37:57;1.13;;;0.90;;
6642;SDS011;3357;48.050;7.800;2023-12-20T00:40:23;0.80;;;0.80;;
6642;SDS011;3357;48.050;7.800;2023-12-20T00:42:48;0.90;;;0.90;;
6642;SDS011;3357;48.050;7.800;2023-12-20T00:45:14;1.20;;;0.83;;
6642;SDS011;3357;48.050;7.800;2023-12-20T00:47:39;0.90;;;0.90;;
6642;SDS011;3357;48.050;7.800;2023-12-20T00:50:05;1.10;;;1.00;;
6642;SDS011;3357;48.050;7.800;2023-12-20T00:52:31;1.10;;;1.00;;
6642;SDS011;3357;48.050;7.800;2023-12-20T00:54:56;3.63;;;1.07;;
6642;SDS011;3357;48.050;7.800;2023-12-20T00:57:21;1.20;;;1.00;;
6642;SDS011;3357;48.050;7.800;2023-12-20T00:59:47;1.20;;;1.10;;
6642;SDS011;3357;48.050;7.800;2023-12-20T01:02:12;1.87;;;1.10;;
6642;SDS011;3357;48.050;7.800;2023-12-20T01:04:37;0.90;;;0.90;;
6642;SDS011;3357;48.050;7.800;2023-12-20T01:07:02;1.90;;;1.17;;
6642;SDS011;3357;48.050;7.800;2023-12-20T01:09:28;1.00;;;1.00;;
6642;SDS011;3357;48.050;7.800;2023-12-20T01:11:53;1.00;;;1.00;;
6642;SDS011;3357;48.050;7.800;2023-12-20T01:17:40;1.83;;;0.97;;
6642;SDS011;3357;48.050;7.800;2023-12-20T01:20:05;1.00;;;1.00;;
6642;SDS011;3357;48.050;7.800;2023-12-20T01:22:31;1.30;;;1.20;;
6642;SDS011;3357;48.050;7.800;2023-12-20T01:24:56;1.00;;;0.90;;
6642;SDS011;3357;48.050;7.800;2023-12-20T01:27:22;1.37;;;1.00;;
6642;SDS011;3357;48.050;7.800;2023-12-20T01:29:47;1.10;;;1.00;;
6642;SDS011;3357;48.050;7.800;2023-12-20T01:32:12;0.80;;;0.80;;
6642;SDS011;3357;48.050;7.800;2023-12-20T01:34:37;0.80;;;0.80;;
6642;SDS011;3357;48.050;7.800;2023-12-20T01:37:03;1.07;;;0.97;;
6642;SDS011;3357;48.050;7.800;2023-12-20T01:39:29;1.80;;;0.80;;
6642;SDS011;3357;48.050;7.800;2023-12-20T01:41:54;1.00;;;1.00;;
6642;SDS011;3357;48.050;7.800;2023-12-20T01:44:19;0.80;;;0.80;;
6642;SDS011;3357;48.050;7.800;2023-12-20T01:46:45;0.90;;;0.90;;
6642;SDS011;3357;48.050;7.800;2023-12-20T01:49:10;1.60;;;1.30;;
6642;SDS011;3357;48.050;7.800;2023-12-20T01:51:36;1.00;;;0.90;;
6642;SDS011;3357;48.050;7.800;2023-12-20T01:54:01;1.10;;;0.80;;
6642;SDS011;3357;48.050;7.800;2023-12-20T01:56:26;0.70;;;0.70;;
6642;SDS011;3357;48.050;7.800;2023-12-20T01:58:53;0.90;;;0.90;;
6642;SDS011;3357;48.050;7.800;2023-12-20T02:01:19;1.00;;;1.00;;
6642;SDS011;3357;48.050;7.800;2023-12-20T02:03:44;0.70;;;0.70;;
6642;SDS011;3357;48.050;7.800;2023-12-20T02:06:10;1.00;;;0.90;;
6642;SDS011;3357;48.050;7.800;2023-12-20T02:08:36;0.73;;;0.73;;
6642;SDS011;3357;48.050;7.800;2023-12-20T02:11:01;0.80;;;0.80;;
6642;SDS011;3357;48.050;7.800;2023-12-20T02:13:27;3.60;;;0.83;;
6642;SDS011;3357;48.050;7.800;2023-12-20T02:15:52;1.77;;;0.73;;
6642;SDS011;3357;48.050;7.800;2023-12-20T02:18:18;0.60;;;0.60;;
6642;SDS011;3357;48.050;7.800;2023-12-20T02:20:43;0.80;;;0.80;;
6642;SDS011;3357;48.050;7.800;2023-12-20T02:23:09;0.60;;;0.60;;
6642;SDS011;3357;48.050;7.800;2023-12-20T02:25:34;0.60;;;0.60;;
6642;SDS011;3357;48.050;7.800;2023-12-20T02:28:00;0.83;;;0.83;;
6642;SDS011;3357;48.050;7.800;2023-12-20T02:30:26;0.73;;;0.57;;
6642;SDS011;3357;48.050;7.800;2023-12-20T02:32:51;0.70;;;0.70;;
6642;SDS011;3357;48.050;7.800;2023-12-20T02:35:17;0.60;;;0.60;;
6642;SDS011;3357;48.050;7.800;2023-12-20T02:37:42;0.80;;;0.80;;
6642;SDS011;3357;48.050;7.800;2023-12-20T02:40:08;0.90;;;0.90;;
6642;SDS011;3357;48.050;7.800;2023-12-20T02:42:33;0.70;;;0.70;;
6642;SDS011;3357;48.050;7.800;2023-12-20T02:44:58;0.70;;;0.70;;
6642;SDS011;3357;48.050;7.800;2023-12-20T02:47:24;0.83;;;0.83;;
6642;SDS011;3357;48.050;7.800;2023-12-20T02:49:49;0.80;;;0.80;;
6642;SDS011;3357;48.050;7.800;2023-12-20T02:52:14;0.80;;;0.80;;
6642;SDS011;3357;48.050;7.800;2023-12-20T02:54:40;0.70;;;0.70;;
6642;SDS011;3357;48.050;7.800;2023-12-20T02:57:05;0.70;;;0.70;;
6642;SDS011;3357;48.050;7.800;2023-12-20T02:59:31;2.10;;;0.83;;
6642;SDS011;3357;48.050;7.800;2023-12-20T03:01:56;0.90;;;0.90;;
6642;SDS011;3357;48.050;7.800;2023-12-20T03:04:21;0.70;;;0.70;;
6642;SDS011;3357;48.050;7.800;2023-12-20T03:06:47;0.80;;;0.80;;
6642;SDS011;3357;48.050;7.800;2023-12-20T03:09:12;0.70;;;0.70;;
6642;SDS011;3357;48.050;7.800;2023-12-20T03:11:37;0.60;;;0.60;;
6642;SDS011;3357;48.050;7.800;2023-12-20T03:14:02;0.67;;;0.67;;
6642;SDS011;3357;48.050;7.800;2023-12-20T03:16:28;0.83;;;0.83;;
6642;SDS011;3357;48.050;7.800;2023-12-20T03:18:53;0.77;;;0.77;;
6642;SDS011;3357;48.050;7.800;2023-12-20T03:21:18;0.80;;;0.80;;
6642;SDS011;3357;48.050;7.800;2023-12-20T03:23:44;0.70;;;0.70;;
6642;SDS011;3357;48.050;7.800;2023-12-20T03:26:09;0.67;;;0.67;;
6642;SDS011;3357;48.050;7.800;2023-12-20T03:28:35;0.73;;;0.73;;
6642;SDS011;3357;48.050;7.800;2023-12-20T03:31:01;0.97;;;0.80;;
6642;SDS011;3357;48.050;7.800;2023-12-20T03:33:27;0.80;;;0.80;;
6642;SDS011;3357;48.050;7.800;2023-12-20T03:35:52;1.00;;;1.00;;
6642;SDS011;3357;48.050;7.800;2023-12-20T03:41:39;0.73;;;0.73;;
6642;SDS011;3357;48.050;7.800;2023-12-20T03:44:04;0.83;;;0.80;;
6642;SDS011;3357;48.050;7.800;2023-12-20T03:46:30;0.70;;;0.70;;
6642;SDS011;3357;48.050;7.800;2023-12-20T03:48:56;0.70;;;0.70;;
6642;SDS011;3357;48.050;7.800;2023-12-20T03:51:21;1.07;;;0.97;;
6642;SDS011;3357;48.050;7.800;2023-12-20T03:53:47;0.60;;;0.60;;
6642;SDS011;3357;48.050;7.800;2023-12-20T03:56:12;0.60;;;0.60;;
6642;SDS011;3357;48.050;7.800;2023-12-20T03:58:37;0.67;;;0.67;;
6642;SDS011;3357;48.050;7.800;2023-12-20T04:01:02;0.60;;;0.60;;
6642;SDS011;3357;48.050;7.800;2023-12-20T04:03:28;0.70;;;0.70;;
6642;SDS011;3357;48.050;7.800;2023-12-20T04:05:53;1.43;;;0.80;;
6642;SDS011;3357;48.050;7.800;2023-12-20T04:08:18;0.80;;;0.80;;
6642;SDS011;3357;48.050;7.800;2023-12-20T04:14:05;0.60;;;0.60;;
6642;SDS011;3357;48.050;7.800;2023-12-20T04:16:30;0.57;;;0.57;;
6642;SDS011;3357;48.050;7.800;2023-12-20T04:18:55;0.70;;;0.70;;
6642;SDS011;3357;48.050;7.800;2023-12-20T04:21:21;0.60;;;0.60;;
6642;SDS011;3357;48.050;7.800;2023-12-20T04:23:46;2.00;;;0.60;;
6642;SDS011;3357;48.050;7.800;2023-12-20T04:26:11;0.60;;;0.60;;
6642;SDS011;3357;48.050;7.800;2023-12-20T04:28:36;0.60;;;0.60;;
6642;SDS011;3357;48.050;7.800;2023-12-20T04:31:02;0.70;;;0.70;;
6642;SDS011;3357;48.050;7.800;2023-12-20T04:33:27;0.60;;;0.60;;
6642;SDS011;3357;48.050;7.800;2023-12-20T04:35:52;0.60;;;0.60;;
6642;SDS011;3357;48.050;7.800;2023-12-20T04:38:18;0.60;;;0.60;;
6642;SDS011;3357;48.050;7.800;2023-12-20T04:40:43;0.60;;;0.50;;
6642;SDS011;3357;48.050;7.800;2023-12-20T04:43:08;0.50;;;0.50;;
6642;SDS011;3357;48.050;7.800;2023-12-20T04:45:34;1.90;;;0.67;;
6642;SDS011;3357;48.050;7.800;2023-12-20T04:47:59;0.50;;;0.50;;
6642;SDS011;3357;48.050;7.800;2023-12-20T04:50:24;0.63;;;0.63;;
6642;SDS011;3357;48.050;7.800;2023-12-20T04:52:50;0.60;;;0.60;;
6642;SDS011;3357;48.050;7.800;2023-12-20T04:55:15;0.97;;;0.50;;
6642;SDS011;3357;48.050;7.800;2023-12-20T05:01:03;0.40;;;0.40;;
6642;SDS011;3357;48.050;7.800;2023-12-20T05:03:33;0.40;;;0.40;;
6642;SDS011;3357;48.050;7.800;2023-12-20T05:05:58;1.50;;;0.40;;
6642;SDS011;3357;48.050;7.800;2023-12-20T05:08:23;1.43;;;0.50;;
6642;SDS011;3357;48.050;7.800;2023-12-20T05:10:48;0.40;;;0.40;;
6642;SDS011;3357;48.050;7.800;2023-12-20T05:16:36;0.60;;;0.50;;
6642;SDS011;3357;48.050;7.800;2023-12-20T05:19:01;0.80;;;0.70;;
6642;SDS011;3357;48.050;7.800;2023-12-20T05:21:31;1.07;;;0.40;;
6642;SDS011;3357;48.050;7.800;2023-12-20T05:23:56;0.60;;;0.60;;
6642;SDS011;3357;48.050;7.800;2023-12-20T05:26:22;1.30;;;0.50;;
6642;SDS011;3357;48.050;7.800;2023-12-20T05:35:02;0.50;;;0.50;;
6642;SDS011;3357;48.050;7.800;2023-12-20T05:37:28;0.70;;;0.70;;
6642;SDS011;3357;48.050;7.800;2023-12-20T05:39:53;0.50;;;0.50;;
6642;SDS011;3357;48.050;7.800;2023-12-20T05:42:19;0.50;;;0.50;;
6642;SDS011;3357;48.050;7.800;2023-12-20T05:51:11;0.60;;;0.60;;
6642;SDS011;3357;48.050;7.800;2023-12-20T05:53:36;0.50;;;0.50;;
6642;SDS011;3357;48.050;7.800;2023-12-20T05:56:01;0.40;;;0.40;;
6642;SDS011;3357;48.050;7.800;2023-12-20T05:58:27;0.40;;;0.40;;
6642;SDS011;3357;48.050;7.800;2023-12-20T06:00:52;0.47;;;0.47;;
6642;SDS011;3357;48.050;7.800;2023-12-20T06:03:18;0.60;;;0.60;;
6642;SDS011;3357;48.050;7.800;2023-12-20T06:05:43;0.50;;;0.50;;
6642;SDS011;3357;48.050;7.800;2023-12-20T06:08:08;0.43;;;0.43;;
6642;SDS011;3357;48.050;7.800;2023-12-20T06:10:33;0.40;;;0.40;;
6642;SDS011;3357;48.050;7.800;2023-12-20T06:12:58;0.40;;;0.40;;
6642;SDS011;3357;48.050;7.800;2023-12-20T06:15:25;0.47;;;0.47;;
6642;SDS011;3357;48.050;7.800;2023-12-20T06:21:12;0.53;;;0.53;;
6642;SDS011;3357;48.050;7.800;2023-12-20T06:23:38;0.50;;;0.50;;
6642;SDS011;3357;48.050;7.800;2023-12-20T06:26:03;0.60;;;0.60;;
6642;SDS011;3357;48.050;7.800;2023-12-20T06:28:28;0.60;;;0.50;;
6642;SDS011;3357;48.050;7.800;2023-12-20T06:30:54;0.50;;;0.50;;
6642;SDS011;3357;48.050;7.800;2023-12-20T06:33:20;0.67;;;0.50;;
6642;SDS011;3357;48.050;7.800;2023-12-20T06:35:46;0.67;;;0.60;;
6642;SDS011;3357;48.050;7.800;2023-12-20T06:38:11;1.13;;;0.50;;
6642;SDS011;3357;48.050;7.800;2023-12-20T06:40:36;0.50;;;0.50;;
6642;SDS011;3357;48.050;7.800;2023-12-20T06:43:02;0.50;;;0.50;;
6642;SDS011;3357;48.050;7.800;2023-12-20T06:45:27;1.80;;;0.40;;
6642;SDS011;3357;48.050;7.800;2023-12-20T06:47:52;0.47;;;0.47;;
6642;SDS011;3357;48.050;7.800;2023-12-20T06:57:03;0.50;;;0.50;;
6642;SDS011;3357;48.050;7.800;2023-12-20T06:59:29;1.33;;;0.70;;
6642;SDS011;3357;48.050;7.800;2023-12-20T07:01:54;0.93;;;0.40;;
6642;SDS011;3357;48.050;7.800;2023-12-20T07:04:20;0.47;;;0.47;;
6642;SDS011;3357;48.050;7.800;2023-12-20T07:06:47;0.50;;;0.50;;
6642;SDS011;3357;48.050;7.800;2023-12-20T07:09:13;0.40;;;0.40;;
6642;SDS011;3357;48.050;7.800;2023-12-20T07:11:38;0.60;;;0.60;;
6642;SDS011;3357;48.050;7.800;2023-12-20T07:14:03;0.90;;;0.50;;
6642;SDS011;3357;48.050;7.800;2023-12-20T07:16:29;0.40;;;0.40;;
6642;SDS011;3357;48.050;7.800;2023-12-20T07:18:54;0.40;;;0.40;;
6642;SDS011;3357;48.050;7.800;2023-12-20T07:24:41;0.73;;;0.60;;
6642;SDS011;3357;48.050;7.800;2023-12-20T07:27:07;0.40;;;0.40;;
6642;SDS011;3357;48.050;7.800;2023-12-20T07:29:32;0.50;;;0.50;;
6642;SDS011;3357;48.050;7.800;2023-12-20T07:31:57;0.50;;;0.50;;
6642;SDS011;3357;48.050;7.800;2023-12-20T07:34:22;0.43;;;0.43;;
6642;SDS011;3357;48.050;7.800;2023-12-20T07:36:48;0.40;;;0.40;;
6642;SDS011;3357;48.050;7.800;2023-12-20T07:42:35;2.70;;;0.70;;
6642;SDS011;3357;48.050;7.800;2023-12-20T07:45:00;0.63;;;0.63;;
6642;SDS011;3357;48.050;7.800;2023-12-20T07:47:25;0.77;;;0.60;;
6642;SDS011;3357;48.050;7.800;2023-12-20T07:49:51;0.57;;;0.57;;
6642;SDS011;3357;48.050;7.800;2023-12-20T07:52:17;1.73;;;0.80;;
6642;SDS011;3357;48.050;7.800;2023-12-20T07:58:05;0.50;;;0.50;;
6642;SDS011;3357;48.050;7.800;2023-12-20T08:00:30;0.40;;;0.40;;
6642;SDS011;3357;48.050;7.800;2023-12-20T08:02:55;0.70;;;0.70;;
6642;SDS011;3357;48.050;7.800;2023-12-20T08:05:21;2.93;;;0.50;;
6642;SDS011;3357;48.050;7.800;2023-12-20T08:07:46;0.80;;;0.60;;
6642;SDS011;3357;48.050;7.800;2023-12-20T08:10:11;0.60;;;0.60;;
6642;SDS011;3357;48.050;7.800;2023-12-20T08:12:37;0.50;;;0.50;;
6642;SDS011;3357;48.050;7.800;2023-12-20T08:15:04;0.67;;;0.67;;
6642;SDS011;3357;48.050;7.800;2023-12-20T08:17:30;0.70;;;0.70;;
6642;SDS011;3357;48.050;7.800;2023-12-20T08:19:55;0.80;;;0.80;;
6642;SDS011;3357;48.050;7.800;2023-12-20T08:22:21;0.87;;;0.70;;
6642;SDS011;3357;48.050;7.800;2023-12-20T08:24:46;0.87;;;0.60;;
6642;SDS011;3357;48.050;7.800;2023-12-20T08:27:11;1.20;;;1.10;;
6642;SDS011;3357;48.050;7.800;2023-12-20T08:29:36;0.70;;;0.70;;
6642;SDS011;3357;48.050;7.800;2023-12-20T08:32:02;3.20;;;0.70;;
6642;SDS011;3357;48.050;7.800;2023-12-20T08:34:27;0.60;;;0.60;;
6642;SDS011;3357;48.050;7.800;2023-12-20T08:36:53;0.70;;;0.70;;
6642;SDS011;3357;48.050;7.800;2023-12-20T08:39:20;1.00;;;0.90;;
6642;SDS011;3357;48.050;7.800;2023-12-20T08:41:45;0.80;;;0.80;;
6642;SDS011;3357;48.050;7.800;2023-12-20T08:44:10;2.70;;;1.67;;
6642;SDS011;3357;48.050;7.800;2023-12-20T08:46:36;1.70;;;1.60;;
6642;SDS011;3357;48.050;7.800;2023-12-20T08:49:01;2.73;;;1.87;;
6642;SDS011;3357;48.050;7.800;2023-12-20T08:51:27;1.20;;;1.10;;
6642;SDS011;3357;48.050;7.800;2023-12-20T08:53:52;1.47;;;1.10;;
6642;SDS011;3357;48.050;7.800;2023-12-20T08:56:18;0.90;;;0.90;;
6642;SDS011;3357;48.050;7.800;2023-12-20T08:58:44;1.00;;;0.80;;
6642;SDS011;3357;48.050;7.800;2023-12-20T09:01:09;0.77;;;0.77;;
6642;SDS011;3357;48.050;7.800;2023-12-20T09:03:35;0.80;;;0.80;;
6642;SDS011;3357;48.050;7.800;2023-12-20T09:06:00;0.67;;;0.67;;
6642;SDS011;3357;48.050;7.800;2023-12-20T09:08:25;0.80;;;0.70;;
6642;SDS011;3357;48.050;7.800;2023-12-20T09:10:51;0.80;;;0.80;;
6642;SDS011;3357;48.050;7.800;2023-12-20T09:19:59;1.07;;;0.97;;
6642;SDS011;3357;48.050;7.800;2023-12-20T09:22:25;0.70;;;0.70;;
6642;SDS011;3357;48.050;7.800;2023-12-20T09:24:50;3.30;;;0.90;;
6642;SDS011;3357;48.050;7.800;2023-12-20T09:27:15;0.97;;;0.87;;
6642;SDS011;3357;48.050;7.800;2023-12-20T09:29:41;0.97;;;0.97;;
6642;SDS011;3357;48.050;7.800;2023-12-20T09:32:06;1.40;;;1.03;;
6642;SDS011;3357;48.050;7.800;2023-12-20T09:34:31;1.07;;;0.90;;
6642;SDS011;3357;48.050;7.800;2023-12-20T09:36:57;3.90;;;1.20;;
6642;SDS011;3357;48.050;7.800;2023-12-20T09:39:22;2.40;;;0.87;;
6642;SDS011;3357;48.050;7.800;2023-12-20T09:42:10;1.73;;;1.10;;
6642;SDS011;3357;48.050;7.800;2023-12-20T09:44:34;2.00;;;0.90;;
6642;SDS011;3357;48.050;7.800;2023-12-20T09:47:02;1.00;;;0.90;;
6642;SDS011;3357;48.050;7.800;2023-12-20T09:49:28;1.00;;;0.90;;
6642;SDS011;3357;48.050;7.800;2023-12-20T09:51:55;1.60;;;1.40;;
6642;SDS011;3357;48.050;7.800;2023-12-20T09:54:21;5.80;;;1.10;;
6642;SDS011;3357;48.050;7.800;2023-12-20T09:56:47;1.83;;;1.73;;
6642;SDS011;3357;48.050;7.800;2023-12-20T09:59:12;2.33;;;1.17;;
6642;SDS011;3357;48.050;7.800;2023-12-20T10:01:39;1.30;;;1.03;;
6642;SDS011;3357;48.050;7.800;2023-12-20T10:04:05;3.47;;;1.00;;
6642;SDS011;3357;48.050;7.800;2023-12-20T10:06:37;2.07;;;0.93;;
6642;SDS011;3357;48.050;7.800;2023-12-20T10:09:05;1.43;;;0.77;;
6642;SDS011;3357;48.050;7.800;2023-12-20T10:11:31;1.17;;;0.87;;
6642;SDS011;3357;48.050;7.800;2023-12-20T10:13:59;0.93;;;0.93;;
6642;SDS011;3357;48.050;7.800;2023-12-20T10:16:26;1.47;;;0.90;;
6642;SDS011;3357;48.050;7.800;2023-12-20T10:18:55;1.73;;;0.90;;
6642;SDS011;3357;48.050;7.800;2023-12-20T10:21:20;2.30;;;1.00;;
6642;SDS011;3357;48.050;7.800;2023-12-20T10:23:47;1.03;;;0.93;;
6642;SDS011;3357;48.050;7.800;2023-12-20T10:26:21;2.30;;;0.90;;
6642;SDS011;3357;48.050;7.800;2023-12-20T10:28:50;1.63;;;1.00;;
6642;SDS011;3357;48.050;7.800;2023-12-20T10:31:33;1.10;;;1.10;;
6642;SDS011;3357;48.050;7.800;2023-12-20T10:33:59;1.40;;;0.73;;
6642;SDS011;3357;48.050;7.800;2023-12-20T10:36:26;1.73;;;0.60;;
6642;SDS011;3357;48.050;7.800;2023-12-20T10:38:55;2.80;;;1.10;;
6642;SDS011;3357;48.050;7.800;2023-12-20T10:41:27;0.73;;;0.73;;
6642;SDS011;3357;48.050;7.800;2023-12-20T10:44:03;2.83;;;0.80;;
6642;SDS011;3357;48.050;7.800;2023-12-20T10:46:33;1.17;;;0.90;;
6642;SDS011;3357;48.050;7.800;2023-12-20T10:48:59;0.97;;;0.90;;
6642;SDS011;3357;48.050;7.800;2023-12-20T10:51:27;0.90;;;0.80;;
6642;SDS011;3357;48.050;7.800;2023-12-20T10:53:54;3.10;;;1.00;;
6642;SDS011;3357;48.050;7.800;2023-12-20T10:56:20;1.70;;;1.00;;
6642;SDS011;3357;48.050;7.800;2023-12-20T10:58:51;0.97;;;0.93;;
6642;SDS011;3357;48.050;7.800;2023-12-20T11:01:17;1.53;;;0.83;;
6642;SDS011;3357;48.050;7.800;2023-12-20T11:03:53;1.13;;;0.90;;
6642;SDS011;3357;48.050;7.800;2023-12-20T11:14:40;1.63;;;0.70;;
6642;SDS011;3357;48.050;7.800;2023-12-20T11:17:08;2.73;;;1.13;;
6642;SDS011;3357;48.050;7.800;2023-12-20T11:19:35;4.57;;;1.00;;
6642;SDS011;3357;48.050;7.800;2023-12-20T11:22:03;2.00;;;0.87;;
6642;SDS011;3357;48.050;7.800;2023-12-20T11:24:29;2.20;;;0.80;;
6642;SDS011;3357;48.050;7.800;2023-12-20T11:26:57;6.57;;;0.80;;
6642;SDS011;3357;48.050;7.800;2023-12-20T11:29:31;3.87;;;0.90;;
6642;SDS011;3357;48.050;7.800;2023-12-20T11:32:33;4.67;;;1.10;;
6642;SDS011;3357;48.050;7.800;2023-12-20T11:34:57;3.50;;;0.97;;
6642;SDS011;3357;48.050;7.800;2023-12-20T11:37:30;2.20;;;0.80;;
6642;SDS011;3357;48.050;7.800;2023-12-20T11:40:08;3.10;;;0.80;;
6642;SDS011;3357;48.050;7.800;2023-12-20T11:42:41;3.70;;;1.00;;
6642;SDS011;3357;48.050;7.800;2023-12-20T11:45:11;8.90;;;0.80;;
6642;SDS011;3357;48.050;7.800;2023-12-20T11:47:38;2.70;;;1.00;;
6642;SDS011;3357;48.050;7.800;2023-12-20T11:50:04;2.60;;;1.00;;
6642;SDS011;3357;48.050;7.800;2023-12-20T11:52:29;3.13;;;1.00;;
6642;SDS011;3357;48.050;7.800;2023-12-20T11:54:55;1.83;;;1.10;;
6642;SDS011;3357;48.050;7.800;2023-12-20T11:57:20;3.07;;;1.03;;
6642;SDS011;3357;48.050;7.800;2023-12-20T11:59:45;1.80;;;0.97;;
6642;SDS011;3357;48.050;7.800;2023-12-20T12:02:14;2.00;;;0.70;;
6642;SDS011;3357;48.050;7.800;2023-12-20T12:04:42;1.00;;;0.83;;
6642;SDS011;3357;48.050;7.800;2023-12-20T12:07:08;1.00;;;0.90;;
6642;SDS011;3357;48.050;7.800;2023-12-20T12:09:36;3.20;;;0.70;;
6642;SDS011;3357;48.050;7.800;2023-12-20T12:12:02;0.73;;;0.67;;
6642;SDS011;3357;48.050;7.800;2023-12-20T12:14:28;7.00;;;0.70;;
6642;SDS011;3357;48.050;7.800;2023-12-20T12:16:53;6.33;;;0.97;;
6642;SDS011;3357;48.050;7.800;2023-12-20T12:19:22;1.53;;;0.73;;
6642;SDS011;3357;48.050;7.800;2023-12-20T12:21:49;0.73;;;0.73;;
6642;SDS011;3357;48.050;7.800;2023-12-20T12:24:15;1.83;;;0.63;;
6642;SDS011;3357;48.050;7.800;2023-12-20T12:30:05;5.27;;;1.10;;
6642;SDS011;3357;48.050;7.800;2023-12-20T12:32:32;0.87;;;0.73;;
6642;SDS011;3357;48.050;7.800;2023-12-20T12:34:57;3.00;;;0.93;;
6642;SDS011;3357;48.050;7.800;2023-12-20T12:37:23;1.23;;;0.97;;
6642;SDS011;3357;48.050;7.800;2023-12-20T12:39:53;4.40;;;1.03;;
6642;SDS011;3357;48.050;7.800;2023-12-20T12:42:18;2.93;;;0.80;;
6642;SDS011;3357;48.050;7.800;2023-12-20T12:44:44;3.00;;;0.77;;
6642;SDS011;3357;48.050;7.800;2023-12-20T12:47:09;3.10;;;1.53;;
6642;SDS011;3357;48.050;7.800;2023-12-20T12:49:34;3.93;;;0.80;;
6642;SDS011;3357;48.050;7.800;2023-12-20T12:51:59;1.17;;;0.63;;
6642;SDS011;3357;48.050;7.800;2023-12-20T12:54:25;2.77;;;1.10;;
6642;SDS011;3357;48.050;7.800;2023-12-20T12:56:50;1.07;;;0.63;;
6642;SDS011;3357;48.050;7.800;2023-12-20T12:59:17;2.80;;;0.70;;
6642;SDS011;3357;48.050;7.800;2023-12-20T13:01:43;3.33;;;0.70;;
6642;SDS011;3357;48.050;7.800;2023-12-20T13:04:08;2.10;;;0.70;;
6642;SDS011;3357;48.050;7.800;2023-12-20T13:06:36;3.97;;;0.90;;
6642;SDS011;3357;48.050;7.800;2023-12-20T13:09:02;4.90;;;0.60;;
6642;SDS011;3357;48.050;7.800;2023-12-20T13:11:29;2.90;;;0.60;;
6642;SDS011;3357;48.050;7.800;2023-12-20T13:13:56;5.73;;;1.40;;
6642;SDS011;3357;48.050;7.800;2023-12-20T13:16:22;3.77;;;0.60;;
6642;SDS011;3357;48.050;7.800;2023-12-20T13:18:48;1.10;;;0.67;;
6642;SDS011;3357;48.050;7.800;2023-12-20T13:21:13;2.20;;;0.70;;
6642;SDS011;3357;48.050;7.800;2023-12-20T13:23:38;3.33;;;0.93;;
6642;SDS011;3357;48.050;7.800;2023-12-20T13:26:04;4.70;;;0.67;;
6642;SDS011;3357;48.050;7.800;2023-12-20T13:28:29;3.07;;;1.03;;
6642;SDS011;3357;48.050;7.800;2023-12-20T13:34:16;1.00;;;0.70;;
6642;SDS011;3357;48.050;7.800;2023-12-20T13:36:42;6.43;;;0.90;;
6642;SDS011;3357;48.050;7.800;2023-12-20T13:39:10;4.33;;;0.80;;
6642;SDS011;3357;48.050;7.800;2023-12-20T13:41:36;4.00;;;0.70;;
6642;SDS011;3357;48.050;7.800;2023-12-20T13:44:01;4.10;;;0.67;;
6642;SDS011;3357;48.050;7.800;2023-12-20T13:49:50;1.47;;;1.00;;
6642;SDS011;3357;48.050;7.800;2023-12-20T13:52:15;1.60;;;0.77;;
6642;SDS011;3357;48.050;7.800;2023-12-20T13:54:41;1.80;;;0.70;;
6642;SDS011;3357;48.050;7.800;2023-12-20T13:57:06;2.37;;;0.50;;
6642;SDS011;3357;48.050;7.800;2023-12-20T13:59:32;2.67;;;1.10;;
6642;SDS011;3357;48.050;7.800;2023-12-20T14:01:57;7.57;;;1.20;;
6642;SDS011;3357;48.050;7.800;2023-12-20T14:04:22;1.00;;;0.77;;
6642;SDS011;3357;48.050;7.800;2023-12-20T14:06:47;3.67;;;0.90;;
6642;SDS011;3357;48.050;7.800;2023-12-20T14:09:13;1.20;;;0.60;;
6642;SDS011;3357;48.050;7.800;2023-12-20T14:11:38;3.03;;;0.80;;
6642;SDS011;3357;48.050;7.800;2023-12-20T14:14:06;3.77;;;1.00;;
6642;SDS011;3357;48.050;7.800;2023-12-20T14:16:32;5.23;;;0.53;;
6642;SDS011;3357;48.050;7.800;2023-12-20T14:18:58;1.00;;;0.60;;
6642;SDS011;3357;48.050;7.800;2023-12-20T14:21:23;1.27;;;0.70;;
6642;SDS011;3357;48.050;7.800;2023-12-20T14:23:49;4.70;;;0.87;;
6642;SDS011;3357;48.050;7.800;2023-12-20T14:26:14;2.40;;;0.80;;
6642;SDS011;3357;48.050;7.800;2023-12-20T14:28:42;5.13;;;1.13;;
6642;SDS011;3357;48.050;7.800;2023-12-20T14:31:08;2.37;;;0.90;;
6642;SDS011;3357;48.050;7.800;2023-12-20T14:33:35;5.90;;;1.30;;
6642;SDS011;3357;48.050;7.800;2023-12-20T14:36:00;6.57;;;1.00;;
6642;SDS011;3357;48.050;7.800;2023-12-20T14:38:26;2.60;;;1.03;;
6642;SDS011;3357;48.050;7.800;2023-12-20T14:40:52;1.53;;;1.00;;
6642;SDS011;3357;48.050;7.800;2023-12-20T14:43:18;1.60;;;0.90;;
6642;SDS011;3357;48.050;7.800;2023-12-20T14:45:43;1.57;;;0.90;;
6642;SDS011;3357;48.050;7.800;2023-12-20T14:48:09;4.20;;;1.10;;
6642;SDS011;3357;48.050;7.800;2023-12-20T14:50:34;4.23;;;1.03;;
6642;SDS011;3357;48.050;7.800;2023-12-20T14:53:01;2.03;;;1.07;;
6642;SDS011;3357;48.050;7.800;2023-12-20T14:55:27;2.27;;;1.20;;
6642;SDS011;3357;48.050;7.800;2023-12-20T14:57:54;1.03;;;0.93;;
6642;SDS011;3357;48.050;7.800;2023-12-20T15:00:19;1.57;;;0.80;;
6642;SDS011;3357;48.050;7.800;2023-12-20T15:02:45;3.90;;;1.00;;
6642;SDS011;3357;48.050;7.800;2023-12-20T15:05:11;5.57;;;1.20;;
6642;SDS011;3357;48.050;7.800;2023-12-20T15:07:36;7.17;;;0.93;;
6642;SDS011;3357;48.050;7.800;2023-12-20T15:10:02;1.10;;;0.77;;
6642;SDS011;3357;48.050;7.800;2023-12-20T15:12:27;3.63;;;1.00;;
6642;SDS011;3357;48.050;7.800;2023-12-20T15:14:52;3.17;;;0.57;;
6642;SDS011;3357;48.050;7.800;2023-12-20T15:17:18;2.10;;;1.07;;
6642;SDS011;3357;48.050;7.800;2023-12-20T15:19:43;5.70;;;0.90;;
6642;SDS011;3357;48.050;7.800;2023-12-20T15:22:09;4.47;;;1.03;;
6642;SDS011;3357;48.050;7.800;2023-12-20T15:24:36;0.87;;;0.63;;
6642;SDS011;3357;48.050;7.800;2023-12-20T15:27:06;3.63;;;1.20;;
6642;SDS011;3357;48.050;7.800;2023-12-20T15:29:31;1.50;;;0.70;;
6642;SDS011;3357;48.050;7.800;2023-12-20T15:31:57;1.13;;;0.73;;
6642;SDS011;3357;48.050;7.800;2023-12-20T15:34:22;1.80;;;0.90;;
6642;SDS011;3357;48.050;7.800;2023-12-20T15:36:47;1.27;;;0.80;;
6642;SDS011;3357;48.050;7.800;2023-12-20T15:39:13;4.23;;;0.90;;
6642;SDS011;3357;48.050;7.800;2023-12-20T15:41:39;2.07;;;1.90;;
6642;SDS011;3357;48.050;7.800;2023-12-20T15:44:04;6.43;;;1.73;;
6642;SDS011;3357;48.050;7.800;2023-12-20T15:46:30;4.73;;;3.00;;
6642;SDS011;3357;48.050;7.800;2023-12-20T15:48:55;3.53;;;1.23;;
6642;SDS011;3357;48.050;7.800;2023-12-20T15:51:21;5.83;;;1.00;;
6642;SDS011;3357;48.050;7.800;2023-12-20T15:53:47;3.50;;;0.80;;
6642;SDS011;3357;48.050;7.800;2023-12-20T15:59:34;4.33;;;1.30;;
6642;SDS011;3357;48.050;7.800;2023-12-20T16:02:00;2.40;;;1.30;;
6642;SDS011;3357;48.050;7.800;2023-12-20T16:04:27;2.60;;;1.33;;
6642;SDS011;3357;48.050;7.800;2023-12-20T16:06:52;3.37;;;1.10;;
6642;SDS011;3357;48.050;7.800;2023-12-20T16:09:18;2.20;;;1.10;;
6642;SDS011;3357;48.050;7.800;2023-12-20T16:11:43;3.27;;;1.20;;
6642;SDS011;3357;48.050;7.800;2023-12-20T16:14:09;1.97;;;1.20;;
6642;SDS011;3357;48.050;7.800;2023-12-20T16:16:38;1.37;;;0.93;;
6642;SDS011;3357;48.050;7.800;2023-12-20T16:19:04;5.70;;;1.30;;
6642;SDS011;3357;48.050;7.800;2023-12-20T16:21:29;2.17;;;0.93;;
6642;SDS011;3357;48.050;7.800;2023-12-20T16:23:54;3.33;;;1.50;;
6642;SDS011;3357;48.050;7.800;2023-12-20T16:26:20;4.07;;;1.20;;
6642;SDS011;3357;48.050;7.800;2023-12-20T16:28:45;8.13;;;1.50;;